Time;durP1;ratioP1;P1;durP2;ratioP2;P2;SDS_P1;SDS_P2;PMS_P1;PMS_P2;Temp;Humidity;BMP_temperature;BMP_pressure;BME280_temperature;BME280_humidity;BME280_pressure;Samples;Min_cycle;Max_cycle;Signal;HPM_P1;HPM_P2
2023/09/16 00:00:17;;;;;;;12.25;11.10;;;13.70;99.90;;;;;;4997488;28;95002;-36
2023/09/16 00:02:43;;;;;;;11.88;10.77;;;13.60;99.90;;;;;;4997269;28;93191;-36
2023/09/16 00:05:09;;;;;;;14.60;12.93;;;13.60;99.90;;;;;;4997600;28;94808;-36
2023/09/16 00:07:35;;;;;;;15.18;13.77;;;13.60;99.90;;;;;;4996655;28;94714;-38
2023/09/16 00:10:00;;;;;;;11.45;10.38;;;13.60;99.90;;;;;;4998499;28;93262;-37
2023/09/16 00:12:26;;;;;;;12.18;11.07;;;13.50;99.90;;;;;;4984207;28;92614;-37
2023/09/16 00:14:53;;;;;;;14.93;11.50;;;13.50;99.90;;;;;;4997178;28;94777;-39
2023/09/16 00:17:19;;;;;;;12.40;11.30;;;13.50;99.90;;;;;;4995827;28;95181;-38
2023/09/16 00:19:45;;;;;;;13.98;12.68;;;13.40;99.90;;;;;;4987611;28;94125;-37
2023/09/16 00:22:11;;;;;;;16.23;14.15;;;13.40;99.90;;;;;;4997060;28;94452;-39
2023/09/16 00:24:37;;;;;;;15.95;14.45;;;13.40;99.90;;;;;;4997297;28;95109;-36
2023/09/16 00:27:03;;;;;;;17.40;15.63;;;13.40;99.90;;;;;;4996285;28;94450;-34
2023/09/16 00:29:29;;;;;;;14.15;12.73;;;13.40;99.90;;;;;;4998606;28;92835;-35
2023/09/16 00:31:56;;;;;;;16.90;13.43;;;13.40;99.90;;;;;;4996539;28;93553;-35
2023/09/16 00:34:21;;;;;;;16.05;13.65;;;13.40;99.90;;;;;;4996626;28;94779;-37
2023/09/16 00:36:47;;;;;;;17.30;14.40;;;13.40;99.90;;;;;;4995105;28;94802;-38
2023/09/16 00:39:13;;;;;;;16.75;15.15;;;13.40;99.90;;;;;;4983884;28;94409;-37
2023/09/16 00:41:40;;;;;;;17.23;15.52;;;13.30;99.90;;;;;;4997454;28;94583;-36
2023/09/16 00:44:05;;;;;;;18.65;16.75;;;13.30;99.90;;;;;;4996579;28;97442;-35
2023/09/16 00:46:31;;;;;;;11.38;10.18;;;13.30;99.90;;;;;;4996540;28;95406;-34
2023/09/16 00:48:57;;;;;;;7.95;7.35;;;13.30;99.90;;;;;;4990136;28;93612;-40
2023/09/16 00:51:22;;;;;;;6.45;6.05;;;13.00;99.90;;;;;;4992424;28;93020;-36
2023/09/16 00:53:49;;;;;;;6.82;6.32;;;12.90;99.90;;;;;;4998712;28;94726;-35
2023/09/16 00:56:15;;;;;;;7.68;7.13;;;12.70;99.90;;;;;;4996867;28;94703;-33
2023/09/16 00:58:41;;;;;;;7.60;7.10;;;12.70;99.90;;;;;;4997792;28;94609;-38
2023/09/16 01:01:09;;;;;;;10.68;9.50;;;12.70;99.90;;;;;;4998301;28;93745;-36
2023/09/16 01:03:35;;;;;;;15.07;13.68;;;12.70;99.90;;;;;;4998149;28;93558;-35
2023/09/16 01:06:04;;;;;;;11.63;10.60;;;12.70;99.90;;;;;;4996548;28;95072;-38
2023/09/16 01:08:32;;;;;;;11.85;10.15;;;12.70;99.90;;;;;;4995889;28;93482;-34
2023/09/16 01:10:58;;;;;;;11.38;10.30;;;12.80;99.90;;;;;;4995979;28;92470;-35
2023/09/16 01:13:24;;;;;;;15.02;13.63;;;12.80;99.90;;;;;;4997420;28;94083;-34
2023/09/16 01:16:03;;;;;;;17.98;16.35;;;12.80;99.90;;;;;;4996289;28;93203;-32
2023/09/16 01:18:34;;;;;;;20.70;18.58;;;12.80;99.90;;;;;;4996879;28;92466;-35
2023/09/16 01:21:03;;;;;;;24.77;22.20;;;12.80;99.90;;;;;;4996122;28;93599;-37
2023/09/16 01:23:29;;;;;;;22.13;19.83;;;12.90;99.90;;;;;;4977501;28;94801;-34
2023/09/16 01:25:55;;;;;;;19.52;17.17;;;12.90;99.90;;;;;;4983805;28;94541;-39
2023/09/16 01:28:22;;;;;;;17.02;15.40;;;13.00;99.90;;;;;;4996417;28;94317;-38
2023/09/16 01:30:50;;;;;;;18.02;16.17;;;13.00;99.90;;;;;;4996390;28;92166;-38
2023/09/16 01:33:23;;;;;;;16.47;14.97;;;13.00;99.90;;;;;;4995011;28;95042;-39
2023/09/16 01:36:00;;;;;;;16.35;14.75;;;13.00;99.90;;;;;;4993428;28;95056;-35
2023/09/16 01:38:27;;;;;;;17.37;15.67;;;12.90;99.90;;;;;;4985049;28;93714;-35
2023/09/16 01:40:54;;;;;;;19.08;17.35;;;12.90;99.90;;;;;;4996756;28;94421;-38
2023/09/16 01:43:20;;;;;;;18.27;16.65;;;12.90;99.90;;;;;;4996507;28;94819;-33
2023/09/16 01:45:46;;;;;;;21.23;17.70;;;13.00;99.90;;;;;;4996187;28;94470;-35
2023/09/16 01:48:14;;;;;;;18.42;16.63;;;12.90;99.90;;;;;;4996175;28;93291;-34
2023/09/16 01:50:40;;;;;;;19.40;17.60;;;13.00;99.90;;;;;;4996071;28;92532;-32
2023/09/16 01:53:07;;;;;;;20.08;18.08;;;13.00;99.90;;;;;;4996005;28;95284;-34
2023/09/16 01:55:33;;;;;;;17.98;16.10;;;13.00;99.90;;;;;;4996281;28;93248;-39
2023/09/16 01:57:59;;;;;;;20.13;18.23;;;13.00;99.90;;;;;;4995393;28;95452;-33
2023/09/16 02:00:24;;;;;;;19.95;18.05;;;13.00;99.90;;;;;;4996230;28;93541;-35
2023/09/16 02:02:51;;;;;;;22.52;20.02;;;13.00;99.90;;;;;;4995756;28;94788;-33
2023/09/16 02:05:17;;;;;;;20.88;18.77;;;13.10;99.90;;;;;;4995820;28;94123;-36
2023/09/16 02:07:42;;;;;;;20.00;18.08;;;13.00;99.90;;;;;;4996018;28;94553;-35
2023/09/16 02:10:09;;;;;;;22.95;20.00;;;13.00;99.90;;;;;;4995487;28;92449;-38
2023/09/16 02:12:35;;;;;;;20.38;18.35;;;13.00;99.90;;;;;;4995008;28;95866;-35
2023/09/16 02:15:03;;;;;;;19.70;17.70;;;13.10;99.90;;;;;;4996181;28;95007;-37
2023/09/16 02:17:29;;;;;;;20.98;19.05;;;13.10;99.90;;;;;;4996267;28;93342;-35
2023/09/16 02:19:54;;;;;;;22.95;20.65;;;13.10;99.90;;;;;;4995699;28;92193;-37
2023/09/16 02:22:20;;;;;;;23.58;21.13;;;13.10;99.90;;;;;;4994470;28;95623;-36
2023/09/16 02:24:46;;;;;;;22.80;20.58;;;13.10;99.90;;;;;;4995595;28;95798;-34
2023/09/16 02:27:12;;;;;;;21.35;19.17;;;13.10;99.90;;;;;;4994599;28;93872;-35
2023/09/16 02:29:37;;;;;;;19.95;18.05;;;13.10;99.90;;;;;;4995875;28;93510;-38
2023/09/16 02:32:03;;;;;;;21.63;19.42;;;13.10;99.90;;;;;;4993698;28;94624;-36
2023/09/16 02:34:31;;;;;;;19.20;17.23;;;13.10;99.90;;;;;;4994330;28;94717;-40
2023/09/16 02:36:58;;;;;;;20.00;18.00;;;13.20;99.90;;;;;;4981921;28;94043;-34
2023/09/16 02:39:24;;;;;;;21.20;19.00;;;13.10;99.90;;;;;;4984330;28;93317;-36
2023/09/16 02:41:50;;;;;;;22.85;20.10;;;13.10;99.90;;;;;;4995133;28;94332;-37
2023/09/16 02:44:15;;;;;;;20.88;18.60;;;13.20;99.90;;;;;;4995508;28;94538;-34
2023/09/16 02:46:41;;;;;;;22.52;20.27;;;13.20;99.90;;;;;;4992094;28;97055;-35
2023/09/16 02:49:06;;;;;;;20.05;17.85;;;13.20;99.90;;;;;;4985186;28;94587;-37
2023/09/16 02:51:32;;;;;;;20.17;18.20;;;13.20;99.90;;;;;;4994827;28;94810;-36
2023/09/16 02:53:59;;;;;;;19.73;17.63;;;13.20;99.90;;;;;;4995440;28;94265;-36
2023/09/16 02:56:25;;;;;;;18.42;16.67;;;13.20;99.90;;;;;;4995562;28;93929;-36
2023/09/16 02:58:53;;;;;;;19.13;17.10;;;13.20;99.90;;;;;;4995098;28;92916;-34
2023/09/16 03:01:19;;;;;;;19.95;18.23;;;13.20;99.90;;;;;;4993117;28;94186;-37
2023/09/16 03:03:44;;;;;;;22.85;20.35;;;13.20;99.90;;;;;;4995773;28;93142;-39
2023/09/16 03:06:10;;;;;;;20.42;18.45;;;13.20;99.90;;;;;;4994899;28;93501;-33
2023/09/16 03:08:35;;;;;;;20.70;16.70;;;13.10;99.90;;;;;;4985161;28;93796;-37
2023/09/16 03:11:05;;;;;;;18.83;16.80;;;13.10;99.90;;;;;;4991166;28;96391;-38
2023/09/16 03:13:31;;;;;;;18.58;16.50;;;13.10;99.90;;;;;;4994725;28;96095;-38
2023/09/16 03:16:14;;;;;;;18.92;16.95;;;13.10;99.90;;;;;;4994427;28;93196;-37
2023/09/16 03:18:42;;;;;;;21.17;19.00;;;13.10;99.90;;;;;;4994550;28;92742;-37
2023/09/16 03:21:08;;;;;;;21.80;19.55;;;13.10;99.90;;;;;;4994926;28;94722;-36
2023/09/16 03:23:33;;;;;;;17.33;15.68;;;13.00;99.90;;;;;;4976830;28;95071;-34
2023/09/16 03:25:59;;;;;;;20.60;18.40;;;13.00;99.90;;;;;;4994769;28;93833;-34
2023/09/16 03:28:25;;;;;;;18.88;17.13;;;13.00;99.90;;;;;;4994704;28;92101;-35
2023/09/16 03:30:50;;;;;;;16.92;15.43;;;13.00;99.90;;;;;;4994859;28;95823;-34
2023/09/16 03:33:16;;;;;;;20.00;18.00;;;13.00;99.90;;;;;;4993658;28;94831;-35
2023/09/16 03:35:41;;;;;;;16.83;15.30;;;13.00;99.90;;;;;;4984292;28;94454;-37
2023/09/16 03:38:07;;;;;;;20.60;18.52;;;13.00;99.90;;;;;;4980206;28;93577;-38
2023/09/16 03:40:33;;;;;;;22.17;19.73;;;13.00;99.90;;;;;;4992507;28;93498;-34
2023/09/16 03:42:58;;;;;;;21.15;19.02;;;13.00;99.90;;;;;;4995041;28;95602;-35
2023/09/16 03:45:24;;;;;;;21.95;19.38;;;12.90;99.90;;;;;;4994215;28;92941;-35
2023/09/16 03:47:49;;;;;;;20.35;17.77;;;12.90;99.90;;;;;;4995445;28;92476;-34
2023/09/16 03:50:15;;;;;;;20.10;18.17;;;12.80;99.90;;;;;;4987282;28;95004;-34
2023/09/16 03:52:41;;;;;;;22.02;19.88;;;12.90;99.90;;;;;;4984462;28;94412;-37
2023/09/16 03:55:07;;;;;;;20.10;17.90;;;12.80;99.90;;;;;;4990208;28;93524;-37
2023/09/16 03:57:32;;;;;;;20.92;18.83;;;12.80;99.90;;;;;;4994415;28;94498;-36
2023/09/16 03:59:58;;;;;;;20.20;18.42;;;12.80;99.90;;;;;;4966382;28;95689;-33
2023/09/16 04:02:23;;;;;;;21.77;19.63;;;12.80;99.90;;;;;;4994246;28;95691;-34
2023/09/16 04:04:49;;;;;;;21.05;19.05;;;12.80;99.90;;;;;;4981991;28;93098;-35
2023/09/16 04:07:14;;;;;;;20.77;18.73;;;12.80;99.90;;;;;;4993722;28;92655;-33
2023/09/16 04:09:40;;;;;;;21.17;19.13;;;12.80;99.90;;;;;;4994201;28;94940;-34
2023/09/16 04:12:06;;;;;;;22.88;20.70;;;12.80;99.90;;;;;;4985030;28;94574;-36
2023/09/16 04:14:32;;;;;;;24.10;21.80;;;12.80;99.90;;;;;;4994201;28;93327;-33
2023/09/16 04:16:57;;;;;;;29.92;26.85;;;12.80;99.90;;;;;;4997662;28;93556;-35
2023/09/16 04:19:23;;;;;;;26.70;24.20;;;12.80;99.90;;;;;;4983474;28;94607;-39
2023/09/16 04:21:49;;;;;;;24.73;22.13;;;12.80;99.90;;;;;;4997891;28;94940;-34
2023/09/16 04:24:15;;;;;;;23.20;20.90;;;12.70;99.90;;;;;;4996612;28;93117;-35
2023/09/16 04:26:41;;;;;;;28.67;25.65;;;12.70;99.90;;;;;;4998491;28;94925;-37
2023/09/16 04:29:07;;;;;;;25.95;23.20;;;12.70;99.90;;;;;;4997181;28;95101;-35
2023/09/16 04:31:33;;;;;;;26.60;24.00;;;12.70;99.90;;;;;;4996357;28;95304;-37
2023/09/16 04:33:58;;;;;;;26.70;24.10;;;12.70;99.90;;;;;;4997975;28;93511;-36
2023/09/16 04:36:24;;;;;;;26.30;23.50;;;12.70;99.90;;;;;;4997441;28;93635;-36
2023/09/16 04:38:50;;;;;;;23.30;21.13;;;12.70;99.90;;;;;;4997176;28;95444;-35
2023/09/16 04:41:15;;;;;;;26.20;22.08;;;12.70;99.90;;;;;;4997249;28;96493;-35
2023/09/16 04:43:43;;;;;;;25.35;22.73;;;12.60;99.90;;;;;;4997240;28;93807;-35
2023/09/16 04:46:09;;;;;;;26.25;23.52;;;12.60;99.90;;;;;;4997572;28;94142;-35
2023/09/16 04:48:34;;;;;;;23.30;21.08;;;12.60;99.90;;;;;;4996556;28;94708;-33
2023/09/16 04:51:00;;;;;;;23.58;21.33;;;12.60;99.90;;;;;;4997016;28;95141;-41
2023/09/16 04:53:26;;;;;;;23.80;21.70;;;12.60;99.90;;;;;;4997258;28;93664;-35
2023/09/16 04:56:01;;;;;;;24.73;21.52;;;12.60;99.90;;;;;;4997587;28;94141;-37
2023/09/16 04:58:27;;;;;;;21.58;19.30;;;12.60;99.90;;;;;;4997131;28;93686;-34
2023/09/16 05:00:53;;;;;;;21.42;19.52;;;12.60;99.90;;;;;;4996884;28;92635;-37
2023/09/16 05:03:18;;;;;;;25.52;21.40;;;12.60;99.90;;;;;;4970717;28;94921;-39
2023/09/16 05:05:47;;;;;;;20.58;18.63;;;12.60;99.90;;;;;;4992676;28;92405;-36
2023/09/16 05:08:12;;;;;;;23.05;20.90;;;12.60;99.90;;;;;;4996475;28;94737;-38
2023/09/16 05:10:38;;;;;;;21.55;19.50;;;12.60;99.90;;;;;;4996213;28;93928;-38
2023/09/16 05:13:04;;;;;;;22.10;20.02;;;12.60;99.90;;;;;;4996572;28;95492;-34
2023/09/16 05:15:29;;;;;;;25.58;19.38;;;12.60;99.90;;;;;;4995955;28;94092;-38
2023/09/16 05:17:55;;;;;;;21.90;19.77;;;12.60;99.90;;;;;;4997101;28;93688;-34
2023/09/16 05:20:20;;;;;;;21.60;18.45;;;12.60;99.90;;;;;;4996389;28;95067;-34
2023/09/16 05:22:47;;;;;;;18.35;16.55;;;12.60;99.90;;;;;;4997596;28;94541;-33
2023/09/16 05:25:13;;;;;;;31.92;19.83;;;12.60;99.90;;;;;;4995181;28;93322;-37
2023/09/16 05:27:38;;;;;;;20.50;18.00;;;12.50;99.90;;;;;;4996267;28;93996;-36
2023/09/16 05:30:05;;;;;;;17.83;16.20;;;12.40;99.90;;;;;;4996466;28;94223;-33
2023/09/16 05:32:31;;;;;;;16.20;14.60;;;12.40;99.90;;;;;;5029834;22;93939;-34
2023/09/16 05:34:57;;;;;;;14.13;12.82;;;12.30;99.90;;;;;;4996255;28;94214;-34
2023/09/16 05:37:22;;;;;;;15.20;13.70;;;12.20;99.90;;;;;;4990471;28;95524;-35
2023/09/16 05:39:48;;;;;;;15.85;14.27;;;12.10;99.90;;;;;;4987489;28;95860;-37
2023/09/16 05:42:14;;;;;;;13.98;12.70;;;12.10;99.90;;;;;;4983291;28;93714;-33
2023/09/16 05:44:39;;;;;;;13.10;12.18;;;12.10;99.90;;;;;;4996013;28;94503;-37
2023/09/16 05:47:05;;;;;;;14.57;13.35;;;12.00;99.90;;;;;;4996111;28;94415;-33
2023/09/16 05:49:31;;;;;;;17.48;16.08;;;11.90;99.90;;;;;;4996120;28;95003;-38
2023/09/16 05:51:57;;;;;;;16.50;15.00;;;11.80;99.90;;;;;;4996305;28;93921;-36
2023/09/16 05:54:22;;;;;;;15.38;13.98;;;11.80;99.90;;;;;;4984178;28;92446;-35
2023/09/16 05:56:49;;;;;;;16.67;15.05;;;11.80;99.90;;;;;;4995775;28;95254;-33
2023/09/16 05:59:15;;;;;;;16.60;15.10;;;11.90;99.90;;;;;;4995670;28;94008;-34
2023/09/16 06:01:41;;;;;;;20.33;18.15;;;11.90;99.90;;;;;;4995899;28;93931;-34
2023/09/16 06:04:08;;;;;;;17.35;15.93;;;12.00;99.90;;;;;;4979484;28;94087;-36
2023/09/16 06:06:34;;;;;;;17.30;15.75;;;11.90;99.90;;;;;;4991462;28;94818;-33
2023/09/16 06:09:00;;;;;;;19.70;18.00;;;11.90;99.90;;;;;;4991005;28;95263;-36
2023/09/16 06:11:28;;;;;;;18.83;17.33;;;12.00;99.90;;;;;;4993894;28;94488;-34
2023/09/16 06:13:54;;;;;;;18.73;17.13;;;12.00;99.90;;;;;;4974843;28;94863;-35
2023/09/16 06:16:20;;;;;;;18.38;16.77;;;12.10;99.90;;;;;;4991647;28;94877;-36
2023/09/16 06:18:46;;;;;;;19.30;17.80;;;12.20;99.90;;;;;;4993417;28;94383;-33
2023/09/16 06:21:12;;;;;;;19.15;17.58;;;12.20;99.90;;;;;;4993668;28;94226;-35
2023/09/16 06:23:37;;;;;;;19.63;18.13;;;12.30;99.90;;;;;;4992766;28;93311;-37
2023/09/16 06:26:03;;;;;;;22.42;20.13;;;12.30;99.90;;;;;;4992416;28;95775;-34
2023/09/16 06:28:29;;;;;;;24.27;22.08;;;12.40;99.90;;;;;;4992661;28;96789;-36
2023/09/16 06:30:55;;;;;;;28.80;25.95;;;12.40;99.90;;;;;;4992821;28;93844;-34
2023/09/16 06:33:20;;;;;;;28.52;25.73;;;12.50;99.90;;;;;;4992645;28;93150;-36
2023/09/16 06:35:46;;;;;;;26.88;24.33;;;12.60;99.90;;;;;;4993376;28;95425;-33
2023/09/16 06:38:11;;;;;;;33.17;29.67;;;12.70;99.90;;;;;;4979598;28;94860;-35
2023/09/16 06:40:38;;;;;;;34.08;30.70;;;12.90;99.90;;;;;;4991901;28;93177;-35
2023/09/16 06:43:04;;;;;;;33.92;30.80;;;13.00;99.90;;;;;;4993382;28;93225;-37
2023/09/16 06:45:29;;;;;;;33.53;30.10;;;13.10;99.90;;;;;;4992321;28;94947;-34
2023/09/16 06:47:56;;;;;;;33.80;30.35;;;13.10;99.90;;;;;;4992928;28;94600;-34
2023/09/16 06:50:21;;;;;;;35.17;31.60;;;13.10;99.90;;;;;;4992708;28;95155;-33
2023/09/16 06:52:47;;;;;;;34.85;31.20;;;13.20;99.90;;;;;;4992989;28;94671;-36
2023/09/16 06:55:13;;;;;;;32.95;29.65;;;13.30;99.90;;;;;;4992014;28;93138;-36
2023/09/16 06:57:38;;;;;;;34.72;31.35;;;13.40;99.90;;;;;;4992372;28;94684;-35
2023/09/16 07:00:04;;;;;;;26.67;24.02;;;13.50;99.90;;;;;;4991887;28;92223;-37
2023/09/16 07:02:30;;;;;;;27.27;24.40;;;13.60;99.90;;;;;;4984681;28;92882;-37
2023/09/16 07:04:56;;;;;;;27.17;24.35;;;13.70;99.90;;;;;;4981691;28;93590;-37
2023/09/16 07:07:23;;;;;;;28.13;25.65;;;13.90;99.90;;;;;;4992165;28;95539;-33
2023/09/16 07:09:53;;;;;;;32.03;28.75;;;14.00;99.90;;;;;;4993559;28;92156;-35
2023/09/16 07:12:18;;;;;;;31.17;27.65;;;14.10;99.90;;;;;;4992081;28;94322;-35
2023/09/16 07:14:44;;;;;;;32.28;29.08;;;14.20;99.90;;;;;;4991593;28;95288;-38
2023/09/16 07:17:10;;;;;;;29.52;26.45;;;14.20;99.90;;;;;;4991961;28;96277;-37
2023/09/16 07:19:35;;;;;;;30.58;27.60;;;14.30;99.90;;;;;;4993220;28;94846;-36
2023/09/16 07:22:01;;;;;;;27.05;24.50;;;14.30;99.90;;;;;;4972589;28;93345;-34
2023/09/16 07:24:27;;;;;;;30.10;27.00;;;14.30;99.90;;;;;;4993224;28;94197;-36
2023/09/16 07:26:52;;;;;;;29.98;27.08;;;14.40;99.90;;;;;;4991444;28;94383;-37
2023/09/16 07:29:19;;;;;;;28.88;26.17;;;14.40;99.90;;;;;;4987709;28;93845;-33
2023/09/16 07:31:45;;;;;;;29.98;27.00;;;14.40;99.90;;;;;;4970774;28;93908;-36
2023/09/16 07:34:10;;;;;;;29.20;26.38;;;14.50;99.90;;;;;;4985203;28;95338;-34
2023/09/16 07:36:36;;;;;;;30.48;27.52;;;14.60;99.90;;;;;;4975721;28;94639;-36
2023/09/16 07:39:02;;;;;;;30.38;27.20;;;14.70;99.90;;;;;;4988798;28;95371;-33
2023/09/16 07:41:27;;;;;;;30.42;27.30;;;14.80;99.90;;;;;;4991434;28;93525;-38
2023/09/16 07:43:53;;;;;;;29.30;26.23;;;14.80;99.90;;;;;;4990350;28;95037;-37
2023/09/16 07:46:18;;;;;;;27.20;24.70;;;14.90;99.90;;;;;;4991832;28;94801;-36
2023/09/16 07:48:44;;;;;;;28.42;25.73;;;15.00;99.90;;;;;;4989425;28;92204;-36
2023/09/16 07:51:10;;;;;;;27.35;24.65;;;15.00;99.90;;;;;;4987068;28;94822;-37
2023/09/16 07:53:36;;;;;;;28.40;25.60;;;15.10;99.90;;;;;;4995001;28;93419;-34
2023/09/16 07:56:01;;;;;;;28.50;25.90;;;15.10;99.90;;;;;;4995410;28;94779;-37
2023/09/16 07:58:27;;;;;;;28.20;25.23;;;15.20;99.90;;;;;;4981392;28;93290;-36
2023/09/16 08:00:53;;;;;;;28.50;25.83;;;15.30;99.90;;;;;;4994828;28;92730;-35
2023/09/16 08:03:19;;;;;;;28.70;25.65;;;15.40;99.90;;;;;;4990297;28;95673;-33
2023/09/16 08:05:45;;;;;;;31.00;28.15;;;15.40;99.90;;;;;;4993977;28;95569;-35
2023/09/16 08:08:10;;;;;;;31.25;28.02;;;15.50;99.90;;;;;;4993691;28;93193;-33
2023/09/16 08:10:36;;;;;;;27.02;24.50;;;15.60;99.90;;;;;;4994927;28;94691;-34
2023/09/16 08:13:01;;;;;;;32.25;29.20;;;15.60;99.90;;;;;;4993532;28;94937;-37
2023/09/16 08:15:27;;;;;;;28.45;25.83;;;15.70;99.90;;;;;;4994581;28;94470;-31
2023/09/16 08:17:54;;;;;;;28.75;25.88;;;15.70;99.90;;;;;;4994339;28;92625;-37
2023/09/16 08:20:20;;;;;;;29.90;26.90;;;15.90;99.90;;;;;;4994315;28;93801;-33
2023/09/16 08:22:47;;;;;;;32.17;27.88;;;16.10;99.90;;;;;;4994255;28;94422;-33
2023/09/16 08:25:12;;;;;;;29.70;26.77;;;16.20;99.90;;;;;;4994289;28;94524;-37
2023/09/16 08:27:38;;;;;;;28.30;25.77;;;16.30;99.90;;;;;;4994466;28;95036;-37
2023/09/16 08:30:05;;;;;;;29.63;26.63;;;16.40;99.90;;;;;;4994524;28;93170;-37
2023/09/16 08:32:30;;;;;;;26.45;23.98;;;16.60;99.90;;;;;;4994382;28;95006;-34
2023/09/16 08:34:56;;;;;;;27.75;24.88;;;16.70;99.90;;;;;;4994212;28;94055;-35
2023/09/16 08:37:22;;;;;;;28.65;25.80;;;16.80;99.90;;;;;;4971636;28;92742;-32
2023/09/16 08:39:48;;;;;;;29.92;25.52;;;16.90;99.90;;;;;;4992281;28;95095;-35
2023/09/16 08:42:35;;;;;;;26.50;23.90;;;16.90;99.90;;;;;;4993005;28;94813;-35
2023/09/16 08:45:04;;;;;;;26.75;24.23;;;17.30;99.90;;;;;;4994443;28;94152;-35
2023/09/16 08:47:38;;;;;;;23.50;21.00;;;17.50;99.90;;;;;;4995010;28;93622;-36
2023/09/16 08:50:10;;;;;;;24.35;21.85;;;17.70;99.90;;;;;;4992889;28;94809;-35
2023/09/16 08:52:48;;;;;;;23.63;21.52;;;17.80;99.90;;;;;;4993423;28;96961;-33
2023/09/16 08:55:15;;;;;;;25.65;22.80;;;18.00;99.90;;;;;;4994081;28;95930;-34
2023/09/16 08:58:05;;;;;;;24.40;21.88;;;18.10;99.90;;;;;;4994273;28;94127;-35
2023/09/16 09:00:31;;;;;;;23.05;20.90;;;;;;;;;;4974710;28;92317;-34
2023/09/16 09:02:57;;;;;;;23.75;21.13;;;18.40;99.90;;;;;;4987589;28;94913;-37
2023/09/16 09:05:26;;;;;;;23.98;21.40;;;18.50;99.90;;;;;;4986856;28;94160;-34
2023/09/16 09:07:52;;;;;;;23.90;21.42;;;18.60;99.90;;;;;;4994661;28;95452;-34
2023/09/16 09:10:17;;;;;;;22.83;20.42;;;18.70;99.90;;;;;;4993671;28;92432;-35
2023/09/16 09:12:44;;;;;;;21.55;19.40;;;18.80;99.90;;;;;;4993436;28;95042;-37
2023/09/16 09:15:12;;;;;;;24.80;22.23;;;18.80;99.90;;;;;;4993051;28;94583;-37
2023/09/16 09:17:40;;;;;;;22.70;19.67;;;18.80;99.90;;;;;;4993845;28;95658;-33
2023/09/16 09:20:11;;;;;;;23.63;21.25;;;18.80;99.90;;;;;;4992548;28;93565;-33
2023/09/16 09:22:40;;;;;;;23.83;21.42;;;18.90;99.90;;;;;;4994348;28;93396;-38
2023/09/16 09:25:07;;;;;;;22.55;20.23;;;18.90;99.90;;;;;;4992796;28;94547;-35
2023/09/16 09:27:33;;;;;;;23.73;20.88;;;18.90;99.90;;;;;;4993845;28;93860;-34
2023/09/16 09:29:58;;;;;;;21.92;19.85;;;19.00;99.90;;;;;;4993456;28;93117;-33
2023/09/16 09:32:29;;;;;;;26.10;23.42;;;18.90;99.90;;;;;;4993111;28;94543;-35
2023/09/16 09:34:54;;;;;;;22.80;20.52;;;19.00;99.90;;;;;;4993318;28;93783;-32
2023/09/16 09:37:20;;;;;;;19.90;17.88;;;19.30;99.90;;;;;;4988430;28;94507;-36
2023/09/16 09:40:03;;;;;;;24.83;22.45;;;19.50;99.90;;;;;;4974691;28;93086;-32
2023/09/16 09:42:28;;;;;;;22.40;20.02;;;19.60;99.90;;;;;;4980594;28;96066;-35
2023/09/16 09:45:01;;;;;;;21.20;18.73;;;19.80;99.90;;;;;;4993071;28;95454;-36
2023/09/16 09:47:27;;;;;;;18.63;16.83;;;19.70;99.90;;;;;;4994505;28;92854;-33
2023/09/16 09:49:53;;;;;;;19.63;17.63;;;19.80;99.90;;;;;;4991882;28;94341;-36
2023/09/16 09:52:19;;;;;;;20.27;18.17;;;19.90;99.90;;;;;;4993108;28;95281;-38
2023/09/16 09:54:45;;;;;;;24.33;18.70;;;20.00;99.90;;;;;;4992640;28;94397;-33
2023/09/16 09:57:11;;;;;;;19.73;17.80;;;20.00;99.90;;;;;;4991539;28;93815;-33
2023/09/16 09:59:36;;;;;;;18.60;16.80;;;20.10;99.90;;;;;;4990943;28;92576;-35
2023/09/16 10:02:03;;;;;;;18.73;16.95;;;20.30;99.90;;;;;;4989769;28;96520;-37
2023/09/16 10:04:30;;;;;;;17.92;16.25;;;20.30;99.90;;;;;;4978980;28;95063;-37
2023/09/16 10:06:57;;;;;;;18.60;16.70;;;20.50;99.90;;;;;;4991969;28;95484;-35
2023/09/16 10:09:23;;;;;;;16.80;15.03;;;20.60;99.90;;;;;;4993168;28;94125;-36
2023/09/16 10:11:49;;;;;;;16.55;14.77;;;20.50;99.90;;;;;;4991696;28;94767;-37
2023/09/16 10:14:14;;;;;;;20.05;17.92;;;20.60;99.90;;;;;;4992454;28;94380;-32
2023/09/16 10:16:40;;;;;;;16.50;14.93;;;20.80;99.90;;;;;;4993458;28;94603;-36
2023/09/16 10:19:06;;;;;;;17.10;15.38;;;20.90;99.90;;;;;;4992364;28;92815;-34
2023/09/16 10:21:31;;;;;;;15.07;13.55;;;21.00;99.90;;;;;;4992547;28;93584;-34
2023/09/16 10:23:57;;;;;;;17.92;16.02;;;21.00;99.90;;;;;;4992900;28;95848;-37
2023/09/16 10:26:23;;;;;;;17.95;16.05;;;21.00;99.90;;;;;;4992301;28;94695;-37
2023/09/16 10:28:52;;;;;;;17.70;15.88;;;21.20;99.90;;;;;;4989671;28;93497;-33
2023/09/16 10:31:18;;;;;;;18.67;16.70;;;21.20;99.90;;;;;;4991676;28;97294;-32
2023/09/16 10:33:45;;;;;;;17.23;14.68;;;21.20;99.90;;;;;;4991824;28;94977;-35
2023/09/16 10:36:12;;;;;;;17.23;15.45;;;21.20;99.90;;;;;;4992263;28;92462;-37
2023/09/16 10:38:38;;;;;;;16.85;14.75;;;21.40;99.90;;;;;;4979635;28;92361;-33
2023/09/16 10:41:05;;;;;;;17.30;15.15;;;21.40;99.90;;;;;;4991610;28;95204;-34
2023/09/16 10:43:32;;;;;;;15.93;14.27;;;21.50;99.90;;;;;;4992409;28;94728;-35
2023/09/16 10:45:58;;;;;;;14.70;13.30;;;21.50;99.90;;;;;;4992590;28;94476;-34
2023/09/16 10:48:24;;;;;;;14.25;12.50;;;21.50;99.90;;;;;;4992151;28;94435;-35
2023/09/16 10:50:55;;;;;;;15.05;13.50;;;21.70;99.90;;;;;;4992793;28;94110;-34
2023/09/16 10:53:26;;;;;;;15.02;13.48;;;21.70;99.90;;;;;;4992579;28;94434;-37
2023/09/16 10:56:17;;;;;;;14.93;13.52;;;21.70;99.90;;;;;;4991766;28;93652;-36
2023/09/16 10:58:49;;;;;;;18.42;13.45;;;21.70;99.90;;;;;;4982222;28;93197;-34
2023/09/16 11:01:27;;;;;;;17.08;15.05;;;21.80;99.90;;;;;;4991662;28;94577;-34
2023/09/16 11:03:57;;;;;;;16.10;14.63;;;21.90;99.90;;;;;;4978349;28;94161;-34
2023/09/16 11:06:23;;;;;;;14.70;13.27;;;22.00;99.90;;;;;;4992569;28;93538;-36
2023/09/16 11:08:49;;;;;;;17.55;13.88;;;22.00;99.90;;;;;;4992814;28;93874;-33
2023/09/16 11:11:15;;;;;;;14.15;11.00;;;22.00;99.90;;;;;;4972209;28;95765;-33
2023/09/16 11:13:41;;;;;;;15.32;13.73;;;22.10;99.90;;;;;;4992687;28;94764;-32
2023/09/16 11:16:09;;;;;;;14.88;13.07;;;22.10;99.90;;;;;;4991938;28;93836;-36
2023/09/16 11:18:40;;;;;;;15.38;14.00;;;22.10;99.90;;;;;;4991302;28;93970;-34
2023/09/16 11:21:05;;;;;;;20.85;14.65;;;22.10;99.90;;;;;;4990678;28;96213;-36
2023/09/16 11:23:31;;;;;;;18.08;12.43;;;22.10;99.90;;;;;;4978080;28;97135;-33
2023/09/16 11:25:59;;;;;;;14.98;13.40;;;22.20;99.90;;;;;;4985143;28;94306;-34
2023/09/16 11:28:25;;;;;;;14.10;12.85;;;22.20;99.90;;;;;;4977560;28;94856;-35
2023/09/16 11:30:56;;;;;;;19.05;12.23;;;22.30;99.90;;;;;;4995316;28;94559;-33
2023/09/16 11:33:31;;;;;;;14.27;12.80;;;22.50;99.90;;;;;;4994460;28;94614;-35
2023/09/16 11:36:12;;;;;;;9.82;8.57;;;22.60;99.90;;;;;;4996154;28;94700;-34
2023/09/16 11:38:58;;;;;;;8.88;7.38;;;22.70;99.90;;;;;;4979282;28;93476;-34
2023/09/16 11:41:24;;;;;;;10.90;8.85;;;22.70;99.90;;;;;;4953209;28;95612;-35
2023/09/16 11:43:50;;;;;;;9.30;8.27;;;22.70;99.90;;;;;;4996442;28;94794;-34
2023/09/16 11:46:16;;;;;;;8.05;7.35;;;22.70;99.90;;;;;;4995945;28;94809;-34
2023/09/16 11:48:55;;;;;;;9.00;8.15;;;22.70;99.90;;;;;;4995234;28;93096;-37
2023/09/16 11:51:22;;;;;;;8.70;7.70;;;22.80;99.90;;;;;;4995648;28;95633;-35
2023/09/16 11:53:48;;;;;;;7.75;7.05;;;22.80;99.90;;;;;;4996268;28;94564;-33
2023/09/16 11:56:15;;;;;;;9.52;8.57;;;22.90;99.90;;;;;;4994964;28;92090;-37
2023/09/16 11:58:43;;;;;;;10.00;9.05;;;22.80;99.90;;;;;;4995821;28;92680;-36
2023/09/16 12:01:11;;;;;;;9.50;8.57;;;22.90;99.90;;;;;;4994702;28;94649;-38
2023/09/16 12:03:37;;;;;;;11.23;9.55;;;22.90;99.90;;;;;;4984980;28;93584;-37
2023/09/16 12:06:03;;;;;;;8.20;7.50;;;23.00;99.90;;;;;;4993514;28;93737;-37
2023/09/16 12:08:29;;;;;;;11.07;10.00;;;23.10;99.90;;;;;;4996230;28;94623;-35
2023/09/16 12:10:55;;;;;;;9.82;8.93;;;23.10;99.90;;;;;;4992249;28;95699;-34
2023/09/16 12:13:29;;;;;;;13.60;8.65;;;23.20;99.90;;;;;;4996038;28;94009;-37
2023/09/16 12:15:54;;;;;;;8.00;7.22;;;23.20;99.90;;;;;;4995477;28;94152;-34
2023/09/16 12:18:20;;;;;;;7.72;6.55;;;23.20;99.90;;;;;;4994508;28;93833;-37
2023/09/16 12:20:46;;;;;;;8.85;6.78;;;23.20;99.90;;;;;;4995260;28;94924;-38
2023/09/16 12:23:13;;;;;;;7.82;6.90;;;23.20;99.90;;;;;;4995593;28;94463;-34
2023/09/16 12:25:40;;;;;;;8.10;4.78;;;23.20;99.90;;;;;;4994613;28;92866;-34